»·PEaware :: N204LE KSNA-L52

N204LE :: KSNA-L52

FLIGHT INFORMATION

Flight Status: Arrived
Operator: Privately registered:
United States
More flights under this callsign
Pilot: Bill F. (18685)
Aircraft: BEECH AIRCRAFT BARON
(BE58)
More flights by this aircraft type
Origin: KSNA John Wayne-Orange Co
United States
Destination: L52 Oceano Co
United States
More flights between these airports :: More routes between these airports
Route: +
File this flight plan on PilotEdge
Remarks:
Altitude:
(Current/Filed)
6,500ft
Speed:
(Current/Filed)
0kts
Departed: 08-Aug-18 09:37 PM
Arrived: 08-Aug-18 10:42 PM
Distance/Time
Traveled:
161nm/1:05
Distance/Time
To Go:
Arrived

Flight Plot

Page will automatically refresh every two minutes.

Flight plan parsing failed; only flown route is shown


Map Options




Map Legend


Flown Route
Filed Route
Departure Airport
Arrival Airport
Navaid (VOR, NDB)
Fix

Horizontal Profiles

Position Reports

Time Latitude Longitude Heading Altitude Ground
Speed
08-Aug-18 21:28 33.667868 -117.871253 220 57ft 0kts
08-Aug-18 21:29 33.667858 -117.871444 309 57ft 0kts
08-Aug-18 21:30 33.668864 -117.871188 43 57ft 15kts
08-Aug-18 21:31 33.673359 -117.867595 43 57ft 0kts
08-Aug-18 21:32 33.673359 -117.867595 43 57ft 0kts
08-Aug-18 21:33 33.673724 -117.867322 25 57ft 18kts
08-Aug-18 21:34 33.679534 -117.863651 27 57ft 0kts
08-Aug-18 21:35 33.679534 -117.863651 27 57ft 0kts
08-Aug-18 21:36 33.679994 -117.863682 294 57ft 0kts
08-Aug-18 21:37 33.680263 -117.864320 300 57ft 12kts
08-Aug-18 21:38 33.671289 -117.871654 209 122ft 112kts
08-Aug-18 21:39 33.654248 -117.901508 258 1439ft 126kts
08-Aug-18 21:40 33.648724 -117.944965 254 2549ft 142kts
08-Aug-18 21:41 33.639097 -117.991127 260 3511ft 150kts
08-Aug-18 21:42 33.637780 -118.040194 277 4581ft 143kts
08-Aug-18 21:43 33.659398 -118.082750 326 5306ft 155kts
08-Aug-18 21:44 33.691392 -118.124565 299 5285ft 186kts
08-Aug-18 21:45 33.703852 -118.181553 282 5922ft 147kts
08-Aug-18 21:46 33.721495 -118.223328 313 6493ft 161kts
08-Aug-18 21:47 33.754180 -118.264947 313 6477ft 177kts
08-Aug-18 21:48 33.791293 -118.303912 327 6474ft 179kts
08-Aug-18 21:49 33.833039 -118.336051 327 6474ft 179kts
08-Aug-18 21:50 33.874995 -118.368272 327 6465ft 179kts
08-Aug-18 21:51 33.914499 -118.404276 314 6465ft 179kts
08-Aug-18 21:52 33.948916 -118.447742 319 6462ft 179kts
08-Aug-18 21:53 33.990830 -118.480009 326 6466ft 179kts
08-Aug-18 21:54 34.032087 -118.513652 326 6466ft 179kts
08-Aug-18 21:55 34.073379 -118.547122 326 6465ft 179kts
08-Aug-18 21:56 34.115171 -118.581408 326 6468ft 185kts
08-Aug-18 21:57 34.157908 -118.616656 326 6470ft 186kts
08-Aug-18 21:58 34.193300 -118.660643 308 6470ft 187kts
08-Aug-18 21:59 34.226121 -118.709310 308 6469ft 187kts
08-Aug-18 22:00 34.258052 -118.757126 308 6467ft 180kts
08-Aug-18 22:01 34.289038 -118.804209 308 6466ft 179kts
08-Aug-18 22:02 34.314677 -118.843619 308 6466ft 179kts
08-Aug-18 22:03 34.337862 -118.907506 283 6466ft 182kts
08-Aug-18 22:04 34.350981 -118.966041 283 6465ft 182kts
08-Aug-18 22:05 34.364204 -119.025704 283 6465ft 181kts
08-Aug-18 22:06 34.374913 -119.074626 283 6466ft 180kts
08-Aug-18 22:07 34.387648 -119.133524 283 6488ft 180kts
08-Aug-18 22:08 34.399702 -119.192925 283 6493ft 182kts
08-Aug-18 22:09 34.409793 -119.242631 283 6493ft 183kts
08-Aug-18 22:10 34.415987 -119.314161 274 6493ft 183kts
08-Aug-18 22:11 34.418842 -119.365551 274 6493ft 183kts
08-Aug-18 22:12 34.422274 -119.427081 274 6493ft 184kts
08-Aug-18 22:13 34.425747 -119.489110 274 6493ft 184kts
08-Aug-18 22:14 34.429230 -119.551105 274 6493ft 185kts
08-Aug-18 22:15 34.432738 -119.613308 274 6493ft 185kts
08-Aug-18 22:16 34.436239 -119.675147 273 6493ft 185kts
08-Aug-18 22:17 34.439770 -119.737294 273 6493ft 185kts
08-Aug-18 22:18 34.443308 -119.799339 273 6493ft 185kts
08-Aug-18 22:19 34.449798 -119.860894 285 6493ft 184kts
08-Aug-18 22:20 34.467460 -119.919269 290 6493ft 185kts
08-Aug-18 22:21 34.485885 -119.977489 290 6493ft 185kts
08-Aug-18 22:22 34.506208 -120.034738 294 6493ft 185kts
08-Aug-18 22:23 34.531252 -120.088514 310 6493ft 184kts
08-Aug-18 22:24 34.568245 -120.131525 319 6493ft 185kts
08-Aug-18 22:25 34.609676 -120.168425 325 6493ft 185kts
08-Aug-18 22:26 34.650888 -120.205758 320 6493ft 185kts
08-Aug-18 22:27 34.690282 -120.245822 320 6493ft 185kts
08-Aug-18 22:28 34.729637 -120.285850 320 6493ft 185kts
08-Aug-18 22:29 34.769145 -120.326034 320 6493ft 185kts
08-Aug-18 22:30 34.808528 -120.366090 320 6493ft 185kts
08-Aug-18 22:31 34.848006 -120.406244 320 6493ft 185kts
08-Aug-18 22:32 34.887033 -120.445924 320 6337ft 181kts
08-Aug-18 22:33 34.926059 -120.485590 320 5686ft 187kts
08-Aug-18 22:34 34.965516 -120.525702 320 4201ft 184kts
08-Aug-18 22:35 35.003651 -120.563882 321 2721ft 154kts
08-Aug-18 22:36 35.033208 -120.590165 329 1511ft 122kts
08-Aug-18 22:37 35.062219 -120.608810 336 1373ft 117kts
08-Aug-18 22:38 35.093297 -120.622483 358 974ft 117kts
08-Aug-18 22:39 35.094365 -120.603511 208 429ft 95kts
08-Aug-18 22:40 35.105466 -120.634338 272 958ft 123kts
08-Aug-18 22:41 35.084646 -120.627613 110 1127ft 115kts
08-Aug-18 22:42 35.093505 -120.608176 312 395ft 96kts
08-Aug-18 22:43 35.102608 -120.623298 122 14ft 7kts
08-Aug-18 22:44 35.102107 -120.622317 122 14ft 0kts
08-Aug-18 22:45 35.101743 -120.622200 205 14ft 12kts
08-Aug-18 22:46 35.102197 -120.623493 303 14ft 95kts
08-Aug-18 22:47 35.087454 -120.631217 129 1040ft 147kts
08-Aug-18 22:48 35.082595 -120.601988 357 721ft 95kts
08-Aug-18 22:49 35.101638 -120.622486 301 201ft 108kts
08-Aug-18 22:50 35.084875 -120.634390 109 1338ft 137kts
08-Aug-18 22:51 35.090527 -120.607758 340 391ft 87kts
08-Aug-18 22:52 35.102781 -120.623819 1 14ft 9kts
08-Aug-18 22:53 35.103420 -120.624698 215 14ft 0kts
08-Aug-18 22:54 35.103421 -120.624698 215 14ft 0kts
08-Aug-18 22:55 35.103421 -120.624698 215 14ft 0kts
08-Aug-18 22:56 35.074106 -120.570913 303 960ft 156kts
08-Aug-18 22:57 35.089929 -120.600362 305 319ft 126kts
08-Aug-18 22:58 35.102675 -120.624412 303 21ft 0kts

Navigation Log

Ident Type
Flight plan parsing failed, navigation log unavailable